createdAt,value
2023-04-28T00:02:20.697Z,41.72
2023-04-28T00:04:51.619Z,41.85
2023-04-28T00:07:22.542Z,42.07
2023-04-28T00:09:53.000Z,42.15
2023-04-28T00:12:23.431Z,42.08
2023-04-28T00:14:54.470Z,42.06
2023-04-28T00:17:24.985Z,42.07
2023-04-28T00:19:55.944Z,42.04
2023-04-28T00:22:26.487Z,42.10
2023-04-28T00:24:56.912Z,42.06
2023-04-28T00:27:27.341Z,42.03
2023-04-28T00:29:58.119Z,42.21
2023-04-28T00:32:28.584Z,42.08
2023-04-28T00:34:59.764Z,42.17
2023-04-28T00:37:30.630Z,42.13
2023-04-28T00:40:01.120Z,42.18
2023-04-28T00:42:31.642Z,42.19
2023-04-28T00:45:06.153Z,42.16
2023-04-28T00:47:38.556Z,42.28
2023-04-28T00:50:11.531Z,42.27
2023-04-28T00:52:42.201Z,42.25
2023-04-28T00:55:16.079Z,42.35
2023-04-28T00:57:47.728Z,42.30
2023-04-28T01:00:19.202Z,42.28
2023-04-28T01:02:51.121Z,42.09
2023-04-28T01:05:22.922Z,42.04
2023-04-28T01:07:54.211Z,42.22
2023-04-28T01:10:25.065Z,42.11
2023-04-28T01:12:55.588Z,41.97
2023-04-28T01:15:27.120Z,41.98
2023-04-28T01:17:58.608Z,41.99
2023-04-28T01:20:29.124Z,42.20
2023-04-28T01:22:59.856Z,42.28
2023-04-28T01:25:30.439Z,42.21
2023-04-28T01:28:01.195Z,42.21
2023-04-28T01:30:31.804Z,42.46
2023-04-28T01:33:02.529Z,42.34
2023-04-28T01:35:33.199Z,42.33
2023-04-28T01:38:03.755Z,42.37
2023-04-28T01:40:34.587Z,42.50
2023-04-28T01:43:05.096Z,42.44
2023-04-28T01:45:35.726Z,42.34
2023-04-28T01:48:06.725Z,42.53
2023-04-28T01:50:37.441Z,42.56
2023-04-28T01:53:08.349Z,42.56
2023-04-28T01:55:38.838Z,42.72
2023-04-28T01:58:09.378Z,42.78
2023-04-28T02:00:39.856Z,42.86
2023-04-28T02:03:10.507Z,42.71
2023-04-28T02:05:41.118Z,42.82
2023-04-28T02:08:11.946Z,43.00
2023-04-28T02:10:42.680Z,42.90
2023-04-28T02:13:13.445Z,43.04
2023-04-28T02:15:45.427Z,43.13
2023-04-28T02:18:16.673Z,43.32
2023-04-28T02:20:47.158Z,43.30
2023-04-28T02:23:17.604Z,43.31
2023-04-28T02:25:48.134Z,43.42
2023-04-28T02:28:18.670Z,43.46
2023-04-28T02:30:49.097Z,43.32
2023-04-28T02:33:20.713Z,43.35
2023-04-28T02:36:01.565Z,43.51
2023-04-28T02:38:32.655Z,43.49
2023-04-28T02:41:04.966Z,43.64
2023-04-28T02:43:36.444Z,43.75
2023-04-28T02:46:07.849Z,43.76
2023-04-28T02:48:38.438Z,43.78
2023-04-28T02:51:09.175Z,44.03
2023-04-28T02:53:39.745Z,43.89
2023-04-28T02:56:10.647Z,44.02
2023-04-28T02:58:41.148Z,44.06
2023-04-28T03:01:11.744Z,43.89
2023-04-28T03:03:42.477Z,43.96
2023-04-28T03:06:13.244Z,43.86
2023-04-28T03:08:43.727Z,44.09
2023-04-28T03:11:14.392Z,44.02
2023-04-28T03:13:44.909Z,44.00
2023-04-28T03:16:15.719Z,44.09
2023-04-28T03:18:46.301Z,44.00
2023-04-28T03:21:16.956Z,44.12
2023-04-28T03:23:48.089Z,44.11
2023-04-28T03:26:18.592Z,44.11
2023-04-28T03:28:49.207Z,44.10
2023-04-28T03:31:20.395Z,44.04
2023-04-28T03:33:51.156Z,43.97
2023-04-28T03:36:22.059Z,44.08
2023-04-28T03:38:52.523Z,44.22
2023-04-28T03:41:23.571Z,44.22
2023-04-28T03:44:32.314Z,44.17
2023-04-28T03:47:02.971Z,44.46
2023-04-28T03:49:33.485Z,44.43
2023-04-28T03:52:04.574Z,44.55
2023-04-28T03:54:35.420Z,44.75
2023-04-28T03:57:06.282Z,44.62
2023-04-28T03:59:37.086Z,44.81
2023-04-28T04:02:07.637Z,44.83
2023-04-28T04:04:38.310Z,44.84
2023-04-28T04:07:09.085Z,44.82
2023-04-28T04:09:39.659Z,44.92
2023-04-28T04:12:10.564Z,45.02
2023-04-28T04:14:41.063Z,44.79
2023-04-28T04:17:11.579Z,44.90
2023-04-28T04:19:42.767Z,45.02
2023-04-28T04:22:14.436Z,45.68
2023-04-28T04:24:45.240Z,45.35
2023-04-28T04:27:15.778Z,45.17
2023-04-28T04:29:46.252Z,45.06
2023-04-28T04:32:17.789Z,45.32
2023-04-28T04:34:48.269Z,45.43
2023-04-28T04:37:19.430Z,45.75
2023-04-28T04:39:55.527Z,45.60
2023-04-28T04:42:26.772Z,45.54
2023-04-28T04:45:09.110Z,45.80
2023-04-28T04:47:39.797Z,45.79
2023-04-28T04:50:12.191Z,46.02
2023-04-28T04:52:43.299Z,45.93
2023-04-28T04:55:14.160Z,46.07
2023-04-28T04:57:45.100Z,46.15
2023-04-28T05:00:36.331Z,46.27
2023-04-28T05:03:07.811Z,46.13
2023-04-28T05:05:38.815Z,46.15
2023-04-28T05:08:14.469Z,46.31
2023-04-28T05:10:44.996Z,46.03
2023-04-28T05:13:15.527Z,46.00
2023-04-28T05:15:46.129Z,46.27
2023-04-28T05:18:35.245Z,46.22
2023-04-28T05:21:06.766Z,46.16
2023-04-28T05:23:37.273Z,46.56
2023-04-28T05:26:08.337Z,46.33
2023-04-28T05:28:40.393Z,46.30
2023-04-28T05:31:10.958Z,46.25
2023-04-28T05:33:41.538Z,46.08
2023-04-28T05:36:12.152Z,45.99
2023-04-28T05:38:42.925Z,45.93
2023-04-28T05:41:13.416Z,46.15
2023-04-28T05:43:44.087Z,46.13
2023-04-28T05:46:28.198Z,46.41
2023-04-28T05:49:00.904Z,46.35
2023-04-28T05:51:35.440Z,46.56
2023-04-28T05:54:06.340Z,46.51
2023-04-28T05:56:41.409Z,46.63
2023-04-28T05:59:12.730Z,46.68
2023-04-28T06:01:43.262Z,46.67
2023-04-28T06:04:13.998Z,46.58
2023-04-28T06:06:44.963Z,46.51
2023-04-28T06:09:15.652Z,46.57
2023-04-28T06:11:46.306Z,46.61
2023-04-28T06:14:16.963Z,46.54
2023-04-28T06:16:47.843Z,46.72
2023-04-28T06:19:18.988Z,46.77
2023-04-28T06:21:51.619Z,46.74
2023-04-28T06:24:22.071Z,46.77
2023-04-28T06:26:52.751Z,46.89
2023-04-28T06:29:24.320Z,47.05
2023-04-28T06:31:57.723Z,47.19
2023-04-28T06:34:31.060Z,47.35
2023-04-28T06:37:02.622Z,47.58
2023-04-28T06:39:33.080Z,47.52
2023-04-28T06:42:04.255Z,47.42
2023-04-28T06:44:37.695Z,47.54
2023-04-28T06:47:08.210Z,47.23
2023-04-28T06:49:43.954Z,46.80
2023-04-28T06:52:14.761Z,46.63
2023-04-28T06:54:45.255Z,46.51
2023-04-28T06:57:15.796Z,46.46
2023-04-28T06:59:46.392Z,46.54
2023-04-28T07:02:16.894Z,46.61
2023-04-28T07:04:48.370Z,46.72
2023-04-28T07:07:18.860Z,46.87
2023-04-28T07:09:49.327Z,46.56
2023-04-28T07:12:19.808Z,46.45
2023-04-28T07:14:51.765Z,46.74
2023-04-28T07:17:22.224Z,46.84
2023-04-28T07:19:52.693Z,47.00
2023-04-28T07:22:23.170Z,46.83
2023-04-28T07:24:53.777Z,46.80
2023-04-28T07:27:24.368Z,46.61
2023-04-28T07:29:54.795Z,46.48
2023-04-28T07:32:25.338Z,46.61
2023-04-28T07:34:55.904Z,46.27
2023-04-28T07:37:26.477Z,46.04
2023-04-28T07:39:57.193Z,45.85
2023-04-28T07:42:28.138Z,45.89
2023-04-28T07:44:59.023Z,45.59
2023-04-28T07:47:30.150Z,45.48
2023-04-28T07:50:04.756Z,45.66
2023-04-28T07:52:35.667Z,45.87
2023-04-28T07:55:06.500Z,45.73
2023-04-28T07:57:38.081Z,45.56
2023-04-28T08:00:12.105Z,45.56
2023-04-28T08:02:43.287Z,45.63
2023-04-28T08:05:14.128Z,45.72
2023-04-28T08:07:45.175Z,47.36
2023-04-28T08:10:15.855Z,47.57
2023-04-28T08:12:46.372Z,46.62
2023-04-28T08:15:18.565Z,46.93
2023-04-28T08:17:49.286Z,46.98
2023-04-28T08:20:24.440Z,47.14
2023-04-28T08:22:55.688Z,46.83
2023-04-28T08:25:26.353Z,46.13
2023-04-28T08:27:58.802Z,46.16
2023-04-28T08:30:29.232Z,45.49
2023-04-28T08:32:59.897Z,45.51
2023-04-28T08:35:30.894Z,45.22
2023-04-28T08:38:01.386Z,44.76
2023-04-28T08:40:31.999Z,44.44
2023-04-28T08:43:02.522Z,44.65
2023-04-28T08:45:41.876Z,44.25
2023-04-28T08:48:20.070Z,44.09
2023-04-28T08:50:51.340Z,43.83
2023-04-28T08:53:26.582Z,43.49
2023-04-28T08:55:59.043Z,43.35
2023-04-28T08:58:29.999Z,42.85
2023-04-28T09:01:02.789Z,42.92
2023-04-28T09:03:34.126Z,42.17
2023-04-28T09:06:05.164Z,42.08
2023-04-28T09:08:35.619Z,41.81
2023-04-28T09:11:13.795Z,41.36
2023-04-28T09:13:44.601Z,41.69
2023-04-28T09:16:15.450Z,41.86
2023-04-28T09:18:58.877Z,42.00
2023-04-28T09:21:29.393Z,41.77
2023-04-28T09:23:59.827Z,41.63
2023-04-28T09:26:50.705Z,41.81
2023-04-28T09:29:19.645Z,42.35
2023-04-28T09:31:50.160Z,42.29
2023-04-28T09:34:20.645Z,42.71
2023-04-28T09:36:51.920Z,42.76
2023-04-28T09:39:33.052Z,42.82
2023-04-28T09:42:05.359Z,42.39
2023-04-28T09:44:36.386Z,42.86
2023-04-28T09:47:22.583Z,42.25
2023-04-28T09:50:00.524Z,42.41
2023-04-28T09:52:31.071Z,42.33
2023-04-28T09:55:04.715Z,42.71
2023-04-28T09:57:37.277Z,42.71
2023-04-28T10:00:10.210Z,42.69
2023-04-28T10:02:43.926Z,42.40
2023-04-28T10:05:17.806Z,42.85
2023-04-28T10:07:48.575Z,42.25
2023-04-28T10:10:19.987Z,42.17
2023-04-28T10:12:52.344Z,41.90
2023-04-28T10:15:23.808Z,41.82
2023-04-28T10:17:54.809Z,41.77
2023-04-28T10:20:26.271Z,41.75
2023-04-28T10:23:10.291Z,41.93
2023-04-28T10:25:41.213Z,41.98
2023-04-28T10:28:12.029Z,42.14
2023-04-28T10:30:42.665Z,41.53
2023-04-28T10:33:28.982Z,41.45
2023-04-28T10:35:59.987Z,40.93
2023-04-28T10:38:30.470Z,40.72
2023-04-28T10:41:02.953Z,40.66
2023-04-28T10:43:41.515Z,40.77
2023-04-28T10:46:15.116Z,40.73
2023-04-28T10:48:58.801Z,40.55
2023-04-28T10:51:37.701Z,40.46
2023-04-28T10:54:12.289Z,40.87
2023-04-28T10:57:04.638Z,40.92
2023-04-28T10:59:35.126Z,41.04
2023-04-28T11:02:36.243Z,40.64
2023-04-28T11:05:20.736Z,40.48
2023-04-28T11:08:34.540Z,40.74
2023-04-28T11:11:26.008Z,40.70
2023-04-28T11:14:18.398Z,40.06
2023-04-28T11:16:55.509Z,40.09
2023-04-28T11:19:28.731Z,40.37
2023-04-28T11:22:01.723Z,40.51
2023-04-28T11:24:32.718Z,39.81
2023-04-28T11:27:03.755Z,39.44
2023-04-28T11:29:39.302Z,38.99
2023-04-28T11:32:11.476Z,39.00
2023-04-28T11:34:42.610Z,39.23
2023-04-28T11:37:18.458Z,39.25
2023-04-28T11:39:49.437Z,38.91
2023-04-28T11:42:20.299Z,38.63
2023-04-28T11:44:55.338Z,38.61
2023-04-28T11:47:36.963Z,38.14
2023-04-28T11:50:09.312Z,38.15
2023-04-28T11:52:53.541Z,38.24
2023-04-28T11:55:24.585Z,38.14
2023-04-28T11:58:22.621Z,37.77
2023-04-28T12:01:09.802Z,37.68
2023-04-28T12:03:47.456Z,37.86
2023-04-28T12:06:21.055Z,37.95
2023-04-28T12:08:51.926Z,37.98
2023-04-28T12:11:24.238Z,37.86
2023-04-28T12:14:10.229Z,37.74
2023-04-28T12:16:46.578Z,36.92
2023-04-28T12:19:17.603Z,36.34
2023-04-28T12:22:02.286Z,36.14
2023-04-28T12:24:33.762Z,35.59
2023-04-28T12:27:25.002Z,35.41
2023-04-28T12:29:56.436Z,35.64
2023-04-28T12:32:41.519Z,35.68
2023-04-28T12:35:12.474Z,35.42
2023-04-28T12:37:43.553Z,35.01
2023-04-28T12:40:15.088Z,34.92
2023-04-28T12:42:45.610Z,34.96
2023-04-28T12:45:17.197Z,34.97
2023-04-28T12:47:48.454Z,34.75
2023-04-28T12:50:19.320Z,34.81
2023-04-28T12:52:49.798Z,34.80
2023-04-28T12:55:20.454Z,34.63
2023-04-28T12:57:51.705Z,34.86
2023-04-28T13:00:23.584Z,34.61
2023-04-28T13:02:53.224Z,34.16
2023-04-28T13:05:24.424Z,34.21
2023-04-28T13:07:56.516Z,34.24
2023-04-28T13:10:27.109Z,34.05
2023-04-28T13:12:57.581Z,34.09
2023-04-28T13:15:28.128Z,34.02
2023-04-28T13:17:59.901Z,33.70
2023-04-28T13:20:30.795Z,33.57
2023-04-28T13:23:01.418Z,34.00
2023-04-28T13:25:32.477Z,35.88
2023-04-28T13:28:03.092Z,36.33
2023-04-28T13:30:34.728Z,36.43
2023-04-28T13:33:05.333Z,36.69
2023-04-28T13:35:35.830Z,36.70
2023-04-28T13:38:06.508Z,36.49
2023-04-28T13:40:37.169Z,36.50
2023-04-28T13:43:07.624Z,36.64
2023-04-28T13:45:38.106Z,36.57
2023-04-28T13:48:08.842Z,36.03
2023-04-28T13:50:39.684Z,35.78
2023-04-28T13:53:10.411Z,35.56
2023-04-28T13:55:41.085Z,35.59
2023-04-28T13:58:11.532Z,35.08
2023-04-28T14:00:42.185Z,34.88
2023-04-28T14:03:13.423Z,34.84
2023-04-28T14:05:49.559Z,34.90
2023-04-28T14:08:20.985Z,34.68
2023-04-28T14:10:52.257Z,34.56
2023-04-28T14:13:24.719Z,34.35
2023-04-28T14:15:59.684Z,34.32
2023-04-28T14:18:31.011Z,34.44
2023-04-28T14:21:03.232Z,34.27
2023-04-28T14:23:33.694Z,34.28
2023-04-28T14:26:04.288Z,34.24
2023-04-28T14:28:34.817Z,33.99
2023-04-28T14:31:08.723Z,33.98
2023-04-28T14:33:39.577Z,34.34
2023-04-28T14:36:10.304Z,34.53
2023-04-28T14:38:40.837Z,34.57
2023-04-28T14:41:11.572Z,35.06
2023-04-28T14:43:42.281Z,35.34
2023-04-28T14:46:14.087Z,35.28
2023-04-28T14:48:43.773Z,35.37
2023-04-28T14:51:14.520Z,35.50
2023-04-28T14:53:45.013Z,35.59
2023-04-28T14:56:19.110Z,35.46
2023-04-28T14:58:50.473Z,35.20
2023-04-28T15:01:21.017Z,34.67
2023-04-28T15:03:52.766Z,34.68
2023-04-28T15:06:23.351Z,34.64
2023-04-28T15:08:53.857Z,34.53
2023-04-28T15:11:24.387Z,34.46
2023-04-28T15:13:55.123Z,34.22
2023-04-28T15:16:25.723Z,34.12
2023-04-28T15:18:56.241Z,34.21
2023-04-28T15:21:28.527Z,34.20
2023-04-28T15:24:01.036Z,34.18
2023-04-28T15:26:31.489Z,34.33
2023-04-28T15:29:01.982Z,34.18
2023-04-28T15:31:32.999Z,33.82
2023-04-28T15:34:03.553Z,34.06
2023-04-28T15:36:37.707Z,33.84
2023-04-28T15:39:08.531Z,33.62
2023-04-28T15:41:39.141Z,33.17
2023-04-28T15:44:09.978Z,33.38
2023-04-28T15:46:40.718Z,33.08
2023-04-28T15:49:11.168Z,32.98
2023-04-28T15:51:42.497Z,33.05
2023-04-28T15:54:13.016Z,32.86
2023-04-28T15:56:43.578Z,32.63
2023-04-28T15:59:16.138Z,32.89
2023-04-28T16:01:47.257Z,33.06
2023-04-28T16:04:17.946Z,32.76
2023-04-28T16:06:50.481Z,32.95
2023-04-28T16:09:21.223Z,33.06
2023-04-28T16:11:51.953Z,32.84
2023-04-28T16:14:22.456Z,32.66
2023-04-28T16:16:53.232Z,32.68
2023-04-28T16:19:25.351Z,32.83
2023-04-28T16:21:55.848Z,32.74
2023-04-28T16:24:27.059Z,32.92
2023-04-28T16:26:57.546Z,33.17
2023-04-28T16:29:28.056Z,33.30
2023-04-28T16:31:58.620Z,33.15
2023-04-28T16:34:29.595Z,33.30
2023-04-28T16:37:00.131Z,33.41
2023-04-28T16:39:32.067Z,33.59
2023-04-28T16:42:03.863Z,33.47
2023-04-28T16:44:33.233Z,33.53
2023-04-28T16:47:04.563Z,33.72
2023-04-28T16:49:35.120Z,33.59
2023-04-28T16:52:07.074Z,33.77
2023-04-28T16:54:37.552Z,33.98
2023-04-28T16:57:09.037Z,34.15
2023-04-28T16:59:39.576Z,34.44
2023-04-28T17:02:10.507Z,34.48
2023-04-28T17:04:41.505Z,34.58
2023-04-28T17:07:12.509Z,34.90
2023-04-28T17:09:42.996Z,34.86
2023-04-28T17:12:13.524Z,35.07
2023-04-28T17:14:44.358Z,35.04
2023-04-28T17:17:14.841Z,35.08
2023-04-28T17:19:45.665Z,35.26
2023-04-28T17:22:16.207Z,35.31
2023-04-28T17:24:46.844Z,35.39
2023-04-28T17:27:17.346Z,35.43
2023-04-28T17:29:47.896Z,35.48
2023-04-28T17:32:18.561Z,35.47
2023-04-28T17:34:49.028Z,35.67
2023-04-28T17:37:19.460Z,35.82
2023-04-28T17:39:51.808Z,35.78
2023-04-28T17:42:22.651Z,36.03
2023-04-28T17:44:53.400Z,36.08
2023-04-28T17:47:24.079Z,36.16
2023-04-28T17:49:54.906Z,36.04
2023-04-28T17:52:25.501Z,36.22
2023-04-28T17:55:04.676Z,36.13
2023-04-28T17:57:35.304Z,36.13
2023-04-28T18:00:07.062Z,36.15
2023-04-28T18:02:42.484Z,36.13
2023-04-28T18:05:13.438Z,36.29
2023-04-28T18:07:44.057Z,36.48
2023-04-28T18:10:15.324Z,36.50
2023-04-28T18:12:46.361Z,36.56
2023-04-28T18:15:16.980Z,36.71
2023-04-28T18:17:47.434Z,36.70
2023-04-28T18:20:18.038Z,36.56
2023-04-28T18:22:48.489Z,36.60
2023-04-28T18:25:19.225Z,36.72
2023-04-28T18:27:49.746Z,36.97
2023-04-28T18:30:20.647Z,36.89
2023-04-28T18:32:51.801Z,37.06
2023-04-28T18:35:22.302Z,37.20
2023-04-28T18:37:53.707Z,37.32
2023-04-28T18:40:24.664Z,37.11
2023-04-28T18:42:56.222Z,37.28
2023-04-28T18:45:33.376Z,37.36
2023-04-28T18:48:04.620Z,37.45
2023-04-28T18:50:36.292Z,37.46
2023-04-28T18:53:08.774Z,37.38
2023-04-28T18:55:39.264Z,37.41
2023-04-28T18:58:09.702Z,37.47
2023-04-28T19:00:40.294Z,37.59
2023-04-28T19:03:10.911Z,37.62
2023-04-28T19:05:44.304Z,37.64
2023-04-28T19:08:15.122Z,37.65
2023-04-28T19:10:45.595Z,37.82
2023-04-28T19:13:16.217Z,37.87
2023-04-28T19:15:46.695Z,37.79
2023-04-28T19:18:17.773Z,38.00
2023-04-28T19:20:50.527Z,38.06
2023-04-28T19:23:20.950Z,38.02
2023-04-28T19:25:51.455Z,38.08
2023-04-28T19:28:23.048Z,38.11
2023-04-28T19:30:54.252Z,38.09
2023-04-28T19:33:27.803Z,38.23
2023-04-28T19:36:00.202Z,38.25
2023-04-28T19:38:30.798Z,38.56
2023-04-28T19:41:04.375Z,38.37
2023-04-28T19:43:35.349Z,38.51
2023-04-28T19:46:05.872Z,38.61
2023-04-28T19:48:36.693Z,38.73
2023-04-28T19:51:07.197Z,38.81
2023-04-28T19:53:40.528Z,38.97
2023-04-28T19:56:10.971Z,39.10
2023-04-28T19:58:41.459Z,39.19
2023-04-28T20:01:11.992Z,39.29
2023-04-28T20:03:43.161Z,39.31
2023-04-28T20:06:18.557Z,39.26
2023-04-28T20:08:49.166Z,39.47
2023-04-28T20:11:19.607Z,39.65
2023-04-28T20:13:50.701Z,39.68
2023-04-28T20:16:21.241Z,39.83
2023-04-28T20:18:51.878Z,39.94
2023-04-28T20:21:22.476Z,40.05
2023-04-28T20:23:52.911Z,40.20
2023-04-28T20:26:23.387Z,40.23
2023-04-28T20:28:54.169Z,40.50
2023-04-28T20:31:24.746Z,40.73
2023-04-28T20:33:55.223Z,40.87
2023-04-28T20:36:25.787Z,41.04
2023-04-28T20:38:56.267Z,41.04
2023-04-28T20:41:26.736Z,41.15
2023-04-28T20:43:57.139Z,41.34
2023-04-28T20:46:27.656Z,41.49
2023-04-28T20:48:58.090Z,41.46
2023-04-28T20:51:30.257Z,41.82
2023-04-28T20:54:01.270Z,41.93
2023-04-28T20:56:31.816Z,42.17
2023-04-28T20:59:02.298Z,42.19
2023-04-28T21:01:32.795Z,42.32
2023-04-28T21:04:03.380Z,42.46
2023-04-28T21:06:34.068Z,42.55
2023-04-28T21:09:04.503Z,42.73
2023-04-28T21:11:35.012Z,42.66
2023-04-28T21:14:05.475Z,42.98
2023-04-28T21:16:36.615Z,43.02
2023-04-28T21:19:07.677Z,43.03
2023-04-28T21:21:38.809Z,43.17
2023-04-28T21:24:10.273Z,43.22
2023-04-28T21:26:40.883Z,43.36
2023-04-28T21:29:11.343Z,43.41
2023-04-28T21:31:41.932Z,43.45
2023-04-28T21:34:12.391Z,43.63
2023-04-28T21:36:43.073Z,43.89
2023-04-28T21:39:13.638Z,43.99
2023-04-28T21:41:44.612Z,43.99
2023-04-28T21:44:15.826Z,44.06
2023-04-28T21:46:47.163Z,44.21
2023-04-28T21:49:18.220Z,44.27
2023-04-28T21:51:48.639Z,44.43
2023-04-28T21:54:19.171Z,44.46
2023-04-28T21:56:49.598Z,44.55
2023-04-28T21:59:20.070Z,44.54
2023-04-28T22:01:50.757Z,44.58
2023-04-28T22:04:21.891Z,44.80
2023-04-28T22:06:52.505Z,44.81
2023-04-28T22:09:23.565Z,44.89
2023-04-28T22:11:54.137Z,44.87
2023-04-28T22:14:39.701Z,45.02
2023-04-28T22:17:11.889Z,45.03
2023-04-28T22:19:42.395Z,44.88
2023-04-28T22:22:12.861Z,44.87
2023-04-28T22:24:43.760Z,44.82
2023-04-28T22:27:14.293Z,44.91
2023-04-28T22:29:44.765Z,44.92
2023-04-28T22:32:15.866Z,44.94
2023-04-28T22:34:46.373Z,45.00
2023-04-28T22:37:16.833Z,44.96
2023-04-28T22:39:47.274Z,45.06
2023-04-28T22:42:17.737Z,45.07
2023-04-28T22:44:48.137Z,45.00
2023-04-28T22:47:18.638Z,45.01
2023-04-28T22:49:49.633Z,45.11
2023-04-28T22:52:21.417Z,45.13
2023-04-28T22:54:52.681Z,45.29
2023-04-28T22:57:23.141Z,45.39
2023-04-28T22:59:53.764Z,45.34
2023-04-28T23:02:24.952Z,45.50
2023-04-28T23:04:56.675Z,45.53
2023-04-28T23:07:27.402Z,45.60
2023-04-28T23:09:57.856Z,45.54
2023-04-28T23:12:28.387Z,45.51
2023-04-28T23:14:59.171Z,45.67
2023-04-28T23:17:29.985Z,45.59
2023-04-28T23:20:00.430Z,45.69
2023-04-28T23:22:31.693Z,45.48
2023-04-28T23:25:02.129Z,45.49
2023-04-28T23:27:32.644Z,45.47
2023-04-28T23:30:03.214Z,45.41
2023-04-28T23:32:33.735Z,45.50
2023-04-28T23:35:04.476Z,45.38
2023-04-28T23:37:34.920Z,45.33
2023-04-28T23:40:06.425Z,45.36
2023-04-28T23:42:37.350Z,45.23
2023-04-28T23:45:09.838Z,45.31
2023-04-28T23:47:40.512Z,45.29
2023-04-28T23:50:12.557Z,45.12
2023-04-28T23:52:43.954Z,45.23
2023-04-28T23:55:14.503Z,45.21
2023-04-28T23:57:44.934Z,45.35
